Hauptseite
METAR-TAF:

METAR-TAF

Flughäfen :

Flughafen Marshallinseln

Majuro, Marshallinseln

Breite: 07-04N, Länge: 171-17E, Höhe: 2 m

Beobachtung

Neuester Wetterbericht von vor 56 Minuten, um 21:55 UTC
Wind 8 kt aus Ost/Nordost
Temperatur 30°C
Luftfeuchtigkeit 75%
Luftdruck 1012 hPa
Sichtweite: 24.1 km
Leicht bewölkt in der Höhe von 1500 ft
Aufgelockert bewölkt in der Höhe von 5000 ft
Durchbrochene Bewölkung in der Höhe von 30000 ft

METAR: PKMJ 152155Z 06008KT 15SM FEW015 SCT050 BKN300 30/25 A2989

Zeit: 10:51 (22:51 UTC)

Prognose

Neuester Wetterbericht von vor 5 Stunden und 31 Minuten, um 17:20 UTC
Gültige Prognose vom 15 um 18 UTC bis 16 um 18 UTC
Wind 6 kt aus Ost/Nordost
Sichtweite: 10 km
Leicht bewölkt in der Höhe von 2000 ft
Durchbrochene Bewölkung in der Höhe von 15000 ft
Schauer in der Nähe,

TAF: PKMJ 151720Z 1518/1618 07006KT P6SM VCSH FEW020 BKN150

Wetterbeobachtungen und Prognosen von mehr als 4000 Flughäfen (METAR und TAF Bericht).

Die verfügbaren Stationen werden durch gelbe und rote Markierungen auf der Karte dargestellt.

Führen Sie die Maus auf sie, um den Namen der Station zu sehen.

Darauf klicken, um die Beobachtung von Wetterbeobachtungen und Prognosen zu sehen.

Um die Karte zu ändern : klicken Sie auf den grünen Tasten mit einem schwarzen Kreuz Zum Vergrößern, auf den grünen Button mit einem Gedankenstrich zu verkleinern, oder auf die grünen Pfeile für benachbarte Karten.


METAR-TAF: